Time;durP1;ratioP1;P1;durP2;ratioP2;P2;SDS_P1;SDS_P2;PMS_P1;PMS_P2;Temp;Humidity;BMP_temperature;BMP_pressure;BME280_temperature;BME280_humidity;BME280_pressure;Samples;Min_cycle;Max_cycle;Signal;HPM_P1;HPM_P2
2023/04/10 00:00:10;;;;;;;18.25;14.13;;;;;;;;;;5054518;28;20053;-60
2023/04/10 00:02:36;;;;;;;20.90;13.55;;;;;;;;;;5064219;28;20049;-58
2023/04/10 00:05:03;;;;;;;19.63;15.15;;;;;;;;;;5058681;28;20133;-58
2023/04/10 00:07:30;;;;;;;20.23;14.23;;;;;;;;;;5045537;28;20053;-56
2023/04/10 00:09:56;;;;;;;17.90;12.75;;;;;;;;;;5060288;28;20057;-58
2023/04/10 00:12:24;;;;;;;16.85;13.93;;;;;;;;;;5062456;28;20511;-59
2023/04/10 00:14:50;;;;;;;17.02;12.10;;;;;;;;;;5047796;28;20054;-58
2023/04/10 00:17:16;;;;;;;18.70;12.60;;;;;;;;;;5057919;28;20826;-58
2023/04/10 00:19:43;;;;;;;18.30;12.73;;;;;;;;;;5065261;28;20053;-58
2023/04/10 00:22:09;;;;;;;18.08;13.05;;;;;;;;;;5065483;28;20061;-58
2023/04/10 00:24:35;;;;;;;16.48;12.27;;;;;;;;;;5064566;28;20051;-58
2023/04/10 00:27:02;;;;;;;16.52;11.60;;;;;;;;;;5057005;28;20148;-58
2023/04/10 00:29:28;;;;;;;17.00;11.90;;;;;;;;;;5065081;28;20830;-58
2023/04/10 00:31:55;;;;;;;17.27;11.27;;;;;;;;;;5065377;28;20053;-57
2023/04/10 00:34:21;;;;;;;14.40;10.98;;;;;;;;;;5065689;28;20060;-59
2023/04/10 00:36:47;;;;;;;20.45;12.25;;;;;;;;;;5064905;28;20866;-59
2023/04/10 00:39:14;;;;;;;18.50;11.30;;;;;;;;;;5063695;28;20100;-59
2023/04/10 00:41:40;;;;;;;16.48;11.63;;;;;;;;;;5062621;28;20146;-59
2023/04/10 00:44:07;;;;;;;16.20;11.82;;;;;;;;;;5045757;28;20056;-58
2023/04/10 00:46:36;;;;;;;15.18;10.90;;;;;;;;;;5065759;28;20148;-60
2023/04/10 00:49:02;;;;;;;14.75;10.73;;;;;;;;;;5065249;28;20053;-58
2023/04/10 00:51:30;;;;;;;14.77;10.65;;;;;;;;;;5053944;28;21041;-58
2023/04/10 00:53:56;;;;;;;16.92;11.52;;;;;;;;;;5065236;28;20057;-58
2023/04/10 00:56:23;;;;;;;15.48;10.93;;;;;;;;;;5064952;28;20132;-57
2023/04/10 00:58:50;;;;;;;14.77;10.77;;;;;;;;;;5064262;28;20527;-58
2023/04/10 01:01:16;;;;;;;13.95;10.48;;;;;;;;;;5055217;28;20057;-57
2023/04/10 01:03:43;;;;;;;13.43;10.43;;;;;;;;;;5056911;28;20103;-59
2023/04/10 01:06:16;;;;;;;15.32;9.88;;;;;;;;;;5057267;28;20064;-57
2023/04/10 01:08:49;;;;;;;14.13;10.35;;;;;;;;;;5045972;28;20056;-56
2023/04/10 01:11:34;;;;;;;13.63;10.00;;;;;;;;;;5061394;28;20064;-56
2023/04/10 01:14:26;;;;;;;13.00;9.67;;;;;;;;;;5062618;28;20707;-57
2023/04/10 01:16:57;;;;;;;14.18;9.20;;;;;;;;;;5045463;28;20137;-58
2023/04/10 01:19:37;;;;;;;15.05;9.80;;;;;;;;;;5044805;28;20057;-56
2023/04/10 01:22:09;;;;;;;11.90;8.30;;;;;;;;;;5046313;28;20122;-58
2023/04/10 01:24:41;;;;;;;13.77;9.55;;;;;;;;;;5048151;28;20049;-59
2023/04/10 01:27:08;;;;;;;10.85;8.38;;;;;;;;;;5061046;28;20076;-57
2023/04/10 01:29:35;;;;;;;12.43;9.02;;;;;;;;;;5067084;28;20049;-58
2023/04/10 01:32:03;;;;;;;11.50;8.73;;;;;;;;;;5067836;28;20075;-59
2023/04/10 01:34:37;;;;;;;12.13;8.70;;;;;;;;;;5067587;28;20128;-58
2023/04/10 01:37:04;;;;;;;11.65;7.97;;;;;;;;;;5048728;28;20100;-58
2023/04/10 01:39:35;;;;;;;11.82;9.15;;;;;;;;;;5062738;28;20159;-57
2023/04/10 01:42:02;;;;;;;10.82;7.97;;;;;;;;;;5054471;28;20755;-57
2023/04/10 01:44:29;;;;;;;11.98;8.45;;;;;;;;;;5067204;28;20049;-58
2023/04/10 01:46:56;;;;;;;13.02;8.55;;;;;;;;;;5065385;28;20057;-59
2023/04/10 01:49:24;;;;;;;10.60;7.53;;;;;;;;;;5048366;28;20161;-56
2023/04/10 01:51:50;;;;;;;13.32;8.43;;;;;;;;;;5048466;28;20053;-57
2023/04/10 01:54:17;;;;;;;10.50;7.38;;;;;;;;;;5055886;28;20442;-57
2023/04/10 01:56:43;;;;;;;10.38;7.70;;;;;;;;;;5051738;28;20590;-58
2023/04/10 01:59:10;;;;;;;10.77;7.88;;;;;;;;;;5067487;28;20495;-59
2023/04/10 02:01:36;;;;;;;10.73;7.78;;;;;;;;;;5060815;28;20064;-57
2023/04/10 02:04:03;;;;;;;11.75;8.23;;;;;;;;;;5047809;28;20049;-58
2023/04/10 02:06:50;;;;;;;9.00;7.05;;;;;;;;;;5047444;28;20061;-59
2023/04/10 02:09:46;;;;;;;11.85;8.18;;;;;;;;;;5064660;28;20151;-58
2023/04/10 02:12:15;;;;;;;9.85;6.82;;;;;;;;;;5038850;28;20052;-58
2023/04/10 02:14:43;;;;;;;9.57;7.15;;;;;;;;;;5057039;28;20539;-57
2023/04/10 02:17:12;;;;;;;9.98;7.57;;;;;;;;;;5060460;28;20057;-56
2023/04/10 02:19:39;;;;;;;10.90;7.15;;;;;;;;;;5063220;28;20152;-56
2023/04/10 02:22:07;;;;;;;10.90;7.60;;;;;;;;;;5048027;28;20062;-59
2023/04/10 02:24:34;;;;;;;8.20;5.90;;;;;;;;;;5064020;28;20053;-59
2023/04/10 02:27:00;;;;;;;10.98;6.88;;;;;;;;;;5049397;28;20060;-59
2023/04/10 02:29:26;;;;;;;10.93;6.75;;;;;;;;;;5052307;28;20049;-58
2023/04/10 02:31:53;;;;;;;9.60;7.15;;;;;;;;;;5065157;28;20507;-55
2023/04/10 02:34:19;;;;;;;9.48;7.13;;;;;;;;;;5067533;28;20064;-56
2023/04/10 02:36:45;;;;;;;9.23;6.90;;;;;;;;;;5067707;28;20144;-59
2023/04/10 02:39:12;;;;;;;10.90;7.00;;;;;;;;;;5065419;28;20061;-56
2023/04/10 02:41:38;;;;;;;8.63;6.68;;;;;;;;;;5051101;28;20049;-59
2023/04/10 02:44:05;;;;;;;9.98;7.28;;;;;;;;;;5057012;28;20056;-58
2023/04/10 02:46:32;;;;;;;10.27;7.15;;;;;;;;;;5049516;28;20057;-59
2023/04/10 02:48:58;;;;;;;8.80;6.78;;;;;;;;;;5062263;28;20062;-55
2023/04/10 02:51:25;;;;;;;9.77;7.00;;;;;;;;;;5056712;28;20084;-60
2023/04/10 02:53:51;;;;;;;10.75;6.80;;;;;;;;;;5053814;28;20056;-57
2023/04/10 02:56:19;;;;;;;10.32;7.05;;;;;;;;;;5057336;28;20501;-57
2023/04/10 02:58:46;;;;;;;9.55;6.97;;;;;;;;;;5046868;28;20061;-59
2023/04/10 03:01:13;;;;;;;9.90;7.03;;;;;;;;;;5046399;28;20053;-60
2023/04/10 03:03:39;;;;;;;9.05;6.88;;;;;;;;;;5047094;28;20129;-57
2023/04/10 03:06:06;;;;;;;9.88;6.43;;;;;;;;;;5054621;28;20056;-57
2023/04/10 03:08:33;;;;;;;9.52;7.10;;;;;;;;;;5065979;28;20059;-58
2023/04/10 03:10:59;;;;;;;8.75;6.13;;;;;;;;;;5052240;28;20052;-56
2023/04/10 03:13:26;;;;;;;8.57;6.40;;;;;;;;;;5048159;28;20813;-58
2023/04/10 03:15:52;;;;;;;10.48;7.22;;;;;;;;;;5066606;28;20056;-59
2023/04/10 03:18:19;;;;;;;8.50;6.45;;;;;;;;;;5067993;28;20371;-58
2023/04/10 03:20:46;;;;;;;9.30;6.90;;;;;;;;;;5064032;28;20071;-56
2023/04/10 03:23:12;;;;;;;9.35;6.70;;;;;;;;;;5062217;28;20065;-58
2023/04/10 03:25:38;;;;;;;9.23;7.13;;;;;;;;;;5055187;28;20565;-58
2023/04/10 03:28:05;;;;;;;8.20;6.53;;;;;;;;;;5046885;28;20064;-56
2023/04/10 03:30:31;;;;;;;8.90;7.03;;;;;;;;;;5050614;28;20079;-58
2023/04/10 03:32:57;;;;;;;9.55;6.68;;;;;;;;;;5070073;28;20053;-58
2023/04/10 03:35:24;;;;;;;9.93;7.13;;;;;;;;;;5046709;28;20531;-59
2023/04/10 03:37:50;;;;;;;8.48;6.55;;;;;;;;;;5061247;28;20064;-58
2023/04/10 03:40:16;;;;;;;9.65;6.97;;;;;;;;;;5064952;28;20053;-57
2023/04/10 03:42:43;;;;;;;8.57;6.82;;;;;;;;;;5055644;28;20053;-56
2023/04/10 03:45:10;;;;;;;9.07;7.13;;;;;;;;;;5064029;28;20140;-59
2023/04/10 03:47:36;;;;;;;10.68;7.50;;;;;;;;;;5064638;28;20057;-59
2023/04/10 03:50:02;;;;;;;14.52;6.68;;;;;;;;;;5066145;28;20057;-58
2023/04/10 03:52:29;;;;;;;9.23;6.90;;;;;;;;;;5065463;28;20049;-59
2023/04/10 03:54:55;;;;;;;9.20;7.03;;;;;;;;;;5066059;28;20085;-59
2023/04/10 03:57:22;;;;;;;8.32;6.70;;;;;;;;;;5066918;28;20418;-57
2023/04/10 03:59:48;;;;;;;9.07;6.70;;;;;;;;;;5064709;28;20076;-57
2023/04/10 04:02:15;;;;;;;12.93;7.72;;;;;;;;;;5066263;28;20049;-57
2023/04/10 04:04:41;;;;;;;9.52;7.03;;;;;;;;;;5066333;28;20052;-58
2023/04/10 04:07:09;;;;;;;8.30;6.32;;;;;;;;;;5059910;28;20064;-58
2023/04/10 04:09:35;;;;;;;12.77;7.57;;;;;;;;;;5052759;28;20045;-58
2023/04/10 04:12:01;;;;;;;11.38;7.80;;;;;;;;;;5061535;28;20088;-56
2023/04/10 04:14:28;;;;;;;10.48;6.90;;;;;;;;;;5046374;28;20077;-59
2023/04/10 04:16:55;;;;;;;9.38;6.38;;;;;;;;;;5056892;28;20132;-58
2023/04/10 04:19:21;;;;;;;10.10;7.15;;;;;;;;;;5063729;28;20156;-56
2023/04/10 04:21:47;;;;;;;10.80;7.45;;;;;;;;;;5062293;28;20061;-57
2023/04/10 04:24:14;;;;;;;9.60;6.50;;;;;;;;;;5068919;28;20542;-59
2023/04/10 04:26:40;;;;;;;9.48;6.95;;;;;;;;;;5049202;28;20588;-58
2023/04/10 04:29:06;;;;;;;12.32;7.45;;;;;;;;;;5048464;28;20053;-57
2023/04/10 04:31:33;;;;;;;9.25;6.95;;;;;;;;;;5066050;28;20141;-58
2023/04/10 04:33:59;;;;;;;9.98;7.00;;;;;;;;;;5081813;28;20053;-56
2023/04/10 04:36:26;;;;;;;10.77;7.30;;;;;;;;;;5060605;28;20049;-58
2023/04/10 04:38:53;;;;;;;9.68;6.65;;;;;;;;;;5048509;28;20053;-58
2023/04/10 04:41:19;;;;;;;9.35;7.00;;;;;;;;;;5062159;28;20053;-58
2023/04/10 04:43:46;;;;;;;10.35;7.43;;;;;;;;;;5074594;28;20041;-58
2023/04/10 04:46:12;;;;;;;9.80;7.28;;;;;;;;;;5066769;28;20053;-57
2023/04/10 04:48:39;;;;;;;9.88;7.25;;;;;;;;;;5053192;28;20056;-58
2023/04/10 04:51:06;;;;;;;11.00;7.60;;;;;;;;;;5058736;28;20143;-57
2023/04/10 04:53:32;;;;;;;11.38;7.20;;;;;;;;;;5078777;28;20079;-57
2023/04/10 04:55:58;;;;;;;10.27;7.45;;;;;;;;;;5063730;28;20526;-56
2023/04/10 04:58:25;;;;;;;11.98;8.35;;;;;;;;;;5063276;28;20111;-57
2023/04/10 05:00:51;;;;;;;9.93;7.65;;;;;;;;;;5053874;28;20056;-59
2023/04/10 05:03:18;;;;;;;10.55;7.57;;;;;;;;;;5063230;28;20450;-58
2023/04/10 05:05:45;;;;;;;9.43;6.95;;;;;;;;;;5064965;28;20439;-59
2023/04/10 05:08:11;;;;;;;12.95;7.85;;;;;;;;;;5064723;28;20057;-56
2023/04/10 05:10:38;;;;;;;11.73;8.00;;;;;;;;;;5060659;28;20530;-58
2023/04/10 05:13:04;;;;;;;10.57;7.85;;;;;;;;;;5067101;28;20079;-57
2023/04/10 05:15:31;;;;;;;12.60;7.88;;;;;;;;;;5059639;28;20538;-58
2023/04/10 05:17:57;;;;;;;11.45;7.38;;;;;;;;;;5078810;28;20055;-58
2023/04/10 05:20:25;;;;;;;10.05;6.97;;;;;;;;;;5072099;28;20064;-58
2023/04/10 05:22:51;;;;;;;9.40;7.43;;;;;;;;;;5062045;28;20063;-56
2023/04/10 05:25:18;;;;;;;10.85;8.48;;;;;;;;;;5065381;28;20166;-56
2023/04/10 05:27:44;;;;;;;11.40;8.88;;;;;;;;;;5071729;28;20152;-58
2023/04/10 05:30:11;;;;;;;14.98;7.43;;;;;;;;;;5063937;28;20092;-59
2023/04/10 05:32:37;;;;;;;10.52;7.60;;;;;;;;;;5062584;28;20057;-57
2023/04/10 05:35:04;;;;;;;10.48;7.18;;;;;;;;;;5070328;28;20978;-58
2023/04/10 05:37:30;;;;;;;11.35;7.68;;;;;;;;;;5071490;28;20053;-58
2023/04/10 05:39:57;;;;;;;15.40;7.32;;;;;;;;;;5077326;28;20168;-57
2023/04/10 05:42:23;;;;;;;8.43;6.95;;;;;;;;;;5063234;28;20067;-57
2023/04/10 05:44:51;;;;;;;10.43;7.55;;;;;;;;;;5056310;28;20967;-56
2023/04/10 05:47:17;;;;;;;8.85;6.95;;;;;;;;;;5071362;28;20471;-56
2023/04/10 05:49:43;;;;;;;8.82;6.65;;;;;;;;;;5080669;28;20604;-57
2023/04/10 05:52:10;;;;;;;9.07;7.05;;;;;;;;;;5064995;28;20148;-58
2023/04/10 05:54:36;;;;;;;9.55;7.13;;;;;;;;;;5065551;28;20527;-59
2023/04/10 05:57:02;;;;;;;8.70;6.88;;;;;;;;;;5055268;28;20885;-58
2023/04/10 05:59:29;;;;;;;13.20;7.75;;;;;;;;;;5056250;28;20114;-58
2023/04/10 06:01:55;;;;;;;10.20;7.75;;;;;;;;;;5065209;28;20053;-59
2023/04/10 06:04:22;;;;;;;10.10;7.63;;;;;;;;;;5051438;28;20516;-59
2023/04/10 06:06:49;;;;;;;11.77;7.97;;;;;;;;;;5057908;28;20186;-58
2023/04/10 06:09:15;;;;;;;10.95;7.07;;;;;;;;;;5076148;28;20052;-59
2023/04/10 06:11:41;;;;;;;11.55;7.68;;;;;;;;;;5050375;28;20053;-58
2023/04/10 06:14:08;;;;;;;10.35;7.57;;;;;;;;;;5051576;28;20053;-58
2023/04/10 06:16:34;;;;;;;13.85;7.55;;;;;;;;;;5060172;28;20049;-59
2023/04/10 06:19:01;;;;;;;9.43;7.25;;;;;;;;;;5083795;28;20072;-58
2023/04/10 06:21:27;;;;;;;10.60;7.50;;;;;;;;;;5059594;28;20064;-57
2023/04/10 06:23:54;;;;;;;11.57;7.15;;;;;;;;;;5049919;28;20060;-59
2023/04/10 06:26:20;;;;;;;10.45;7.90;;;;;;;;;;5065252;28;20467;-55
2023/04/10 06:28:47;;;;;;;10.07;7.05;;;;;;;;;;5065526;28;20076;-57
2023/04/10 06:31:13;;;;;;;11.25;7.15;;;;;;;;;;5069021;28;20447;-58
2023/04/10 06:33:40;;;;;;;10.25;7.68;;;;;;;;;;5056656;28;20053;-56
2023/04/10 06:36:06;;;;;;;10.02;6.95;;;;;;;;;;5056491;28;20144;-56
2023/04/10 06:38:36;;;;;;;13.60;7.20;;;;;;;;;;5066524;28;20053;-57
2023/04/10 06:41:04;;;;;;;18.58;7.07;;;;;;;;;;5064422;28;20543;-58
2023/04/10 06:43:34;;;;;;;10.68;7.35;;;;;;;;;;5062081;28;20102;-57
2023/04/10 06:46:04;;;;;;;12.85;7.50;;;;;;;;;;5062796;28;20057;-58
2023/04/10 06:48:30;;;;;;;15.70;7.60;;;;;;;;;;5065927;28;20133;-59
2023/04/10 06:50:59;;;;;;;10.98;7.43;;;;;;;;;;5065956;28;20057;-59
2023/04/10 06:53:26;;;;;;;9.27;6.68;;;;;;;;;;5078246;28;20057;-57
2023/04/10 06:55:52;;;;;;;11.77;8.38;;;;;;;;;;5066705;28;20055;-59
2023/04/10 06:58:19;;;;;;;9.52;7.15;;;;;;;;;;5064303;28;20048;-58
2023/04/10 07:00:46;;;;;;;9.23;7.20;;;;;;;;;;5064226;28;20064;-59
2023/04/10 07:03:12;;;;;;;12.60;7.55;;;;;;;;;;5064290;28;20107;-58
2023/04/10 07:05:39;;;;;;;9.77;7.70;;;;;;;;;;5064196;28;20057;-58
2023/04/10 07:08:07;;;;;;;9.82;6.97;;;;;;;;;;5068055;28;20053;-55
2023/04/10 07:10:34;;;;;;;9.27;7.18;;;;;;;;;;5066721;28;20507;-57
2023/04/10 07:13:00;;;;;;;8.50;6.85;;;;;;;;;;5063239;28;20415;-58
2023/04/10 07:15:27;;;;;;;8.88;6.90;;;;;;;;;;5058897;28;20496;-57
2023/04/10 07:17:55;;;;;;;11.43;6.82;;;;;;;;;;5065008;28;20083;-58
2023/04/10 07:20:21;;;;;;;8.60;6.40;;;;;;;;;;5046085;28;20084;-58
2023/04/10 07:22:47;;;;;;;9.80;6.82;;;;;;;;;;5046359;28;20064;-59
2023/04/10 07:25:14;;;;;;;11.38;6.97;;;;;;;;;;5046777;28;20060;-55
2023/04/10 07:27:40;;;;;;;12.50;6.47;;;;;;;;;;5046712;28;20565;-56
2023/04/10 07:30:07;;;;;;;9.48;7.18;;;;;;;;;;5046745;28;20435;-57
2023/04/10 07:32:33;;;;;;;11.25;7.00;;;;;;;;;;5060225;28;20063;-57
2023/04/10 07:35:00;;;;;;;9.40;6.20;;;;;;;;;;5066631;28;20064;-59
2023/04/10 07:37:26;;;;;;;8.32;6.68;;;;;;;;;;5066560;28;20590;-58
2023/04/10 07:39:53;;;;;;;7.97;6.30;;;;;;;;;;5079901;28;20526;-58
2023/04/10 07:42:20;;;;;;;8.25;6.10;;;;;;;;;;5080492;28;20052;-58
2023/04/10 07:44:46;;;;;;;11.38;6.82;;;;;;;;;;5079887;28;20228;-59
2023/04/10 07:47:12;;;;;;;8.55;6.47;;;;;;;;;;5066545;28;20160;-58
2023/04/10 07:49:38;;;;;;;12.73;6.95;;;;;;;;;;5062898;28;20059;-58
2023/04/10 07:52:05;;;;;;;12.00;8.07;;;;;;;;;;5058688;28;20057;-57
2023/04/10 07:54:33;;;;;;;13.15;6.50;;;;;;;;;;5063625;28;20060;-57
2023/04/10 07:56:59;;;;;;;10.45;7.03;;;;;;;;;;5066754;28;20053;-58
2023/04/10 07:59:26;;;;;;;9.40;6.85;;;;;;;;;;5066581;28;20057;-57
2023/04/10 08:01:53;;;;;;;8.48;6.55;;;;;;;;;;5066284;28;20057;-58
2023/04/10 08:04:19;;;;;;;7.78;6.80;;;;;;;;;;5069403;28;20521;-59
2023/04/10 08:06:46;;;;;;;15.60;7.03;;;;;;;;;;5065794;28;20052;-58
2023/04/10 08:09:12;;;;;;;10.30;7.20;;;;;;;;;;5070198;28;20135;-59
2023/04/10 08:11:38;;;;;;;9.30;6.60;;;;;;;;;;5078486;28;20048;-58
2023/04/10 08:14:05;;;;;;;9.65;7.03;;;;;;;;;;5065717;28;20575;-57
2023/04/10 08:16:33;;;;;;;7.63;6.15;;;;;;;;;;5075281;28;20053;-58
2023/04/10 08:19:00;;;;;;;8.98;7.03;;;;;;;;;;5060193;28;20064;-59
2023/04/10 08:21:27;;;;;;;10.18;7.60;;;;;;;;;;5081204;28;20648;-59
2023/04/10 08:23:54;;;;;;;11.15;7.28;;;;;;;;;;5074217;28;20059;-55
2023/04/10 08:26:21;;;;;;;8.38;6.45;;;;;;;;;;5046944;28;20133;-55
2023/04/10 08:28:49;;;;;;;9.38;7.18;;;;;;;;;;5064609;28;20203;-57
2023/04/10 08:31:16;;;;;;;8.85;6.95;;;;;;;;;;5067345;28;20063;-58
2023/04/10 08:33:43;;;;;;;9.27;6.88;;;;;;;;;;5071534;28;20049;-57
2023/04/10 08:36:11;;;;;;;9.27;7.40;;;;;;;;;;5060841;28;20052;-55
2023/04/10 08:38:38;;;;;;;9.18;6.82;;;;;;;;;;5065997;28;20053;-58
2023/04/10 08:41:05;;;;;;;9.60;7.18;;;;;;;;;;5065713;28;20045;-56
2023/04/10 08:43:33;;;;;;;10.13;7.80;;;;;;;;;;5072667;28;20052;-59
2023/04/10 08:46:00;;;;;;;9.15;7.25;;;;;;;;;;5063423;28;20051;-58
2023/04/10 08:48:30;;;;;;;11.75;7.95;;;;;;;;;;5067228;28;20578;-57
2023/04/10 08:50:59;;;;;;;8.88;7.03;;;;;;;;;;5066787;28;20053;-57
2023/04/10 08:53:28;;;;;;;10.05;7.30;;;;;;;;;;5075822;28;20061;-58
2023/04/10 08:55:55;;;;;;;8.85;6.40;;;;;;;;;;5063379;28;20088;-57
2023/04/10 08:58:23;;;;;;;9.88;7.47;;;;;;;;;;5052670;28;20096;-55
2023/04/10 09:00:50;;;;;;;11.68;7.57;;;;;;;;;;5059271;28;20060;-55
2023/04/10 09:03:16;;;;;;;10.55;6.53;;;;;;;;;;5062373;28;20156;-56
2023/04/10 09:05:43;;;;;;;11.05;8.27;;;;;;;;;;5056469;28;20054;-58
2023/04/10 09:08:10;;;;;;;12.35;9.35;;;;;;;;;;5065700;28;20152;-58
2023/04/10 09:10:38;;;;;;;13.80;8.10;;;;;;;;;;5065477;28;20547;-57
2023/04/10 09:13:04;;;;;;;10.95;7.72;;;;;;;;;;5056216;28;20074;-58
2023/04/10 09:15:50;;;;;;;12.93;9.30;;;;;;;;;;5056323;28;20056;-57
2023/04/10 09:18:17;;;;;;;11.50;8.82;;;;;;;;;;5064352;28;20053;-58
2023/04/10 09:20:50;;;;;;;11.68;8.30;;;;;;;;;;5053670;28;20060;-56
2023/04/10 09:23:20;;;;;;;13.15;8.32;;;;;;;;;;5052353;28;20169;-57
2023/04/10 09:25:46;;;;;;;11.25;8.35;;;;;;;;;;5086069;28;20088;-58
2023/04/10 09:28:15;;;;;;;10.70;7.82;;;;;;;;;;5075758;28;20064;-56
2023/04/10 09:30:42;;;;;;;11.18;8.60;;;;;;;;;;5065524;28;20139;-57
2023/04/10 09:33:28;;;;;;;10.13;7.80;;;;;;;;;;5064617;28;20598;-56
2023/04/10 09:36:02;;;;;;;11.88;7.93;;;;;;;;;;5064626;28;20929;-56
2023/04/10 09:38:29;;;;;;;13.27;7.85;;;;;;;;;;5064892;28;20053;-56
2023/04/10 09:41:05;;;;;;;10.32;7.60;;;;;;;;;;5078509;28;20139;-59
2023/04/10 09:43:31;;;;;;;12.32;8.25;;;;;;;;;;5087696;28;20060;-56
2023/04/10 09:45:58;;;;;;;10.68;7.47;;;;;;;;;;5090009;28;20525;-56
2023/04/10 09:48:25;;;;;;;10.13;7.38;;;;;;;;;;5084457;28;20496;-58
2023/04/10 09:50:52;;;;;;;10.38;7.35;;;;;;;;;;5068905;28;20189;-58
2023/04/10 09:53:19;;;;;;;9.73;7.40;;;;;;;;;;5068318;28;20727;-57
2023/04/10 09:55:46;;;;;;;12.15;7.65;;;;;;;;;;5068553;28;20564;-56
2023/04/10 09:58:13;;;;;;;11.30;7.93;;;;;;;;;;5068981;28;20049;-56
2023/04/10 10:00:43;;;;;;;11.70;7.55;;;;;;;;;;5068577;28;20049;-57
2023/04/10 10:03:11;;;;;;;8.70;7.07;;;;;;;;;;5067749;28;20835;-58
2023/04/10 10:05:42;;;;;;;9.05;7.05;;;;;;;;;;5051851;28;20152;-56
2023/04/10 10:08:09;;;;;;;8.98;6.82;;;;;;;;;;5063946;28;20559;-55
2023/04/10 10:10:38;;;;;;;9.23;7.28;;;;;;;;;;5047810;28;20053;-57
2023/04/10 10:13:05;;;;;;;10.98;8.02;;;;;;;;;;5052424;28;20045;-57
2023/04/10 10:15:37;;;;;;;9.27;7.43;;;;;;;;;;5061735;28;20137;-56
2023/04/10 10:18:04;;;;;;;7.90;6.30;;;;;;;;;;5060184;28;20151;-56
2023/04/10 10:20:31;;;;;;;12.93;7.00;;;;;;;;;;5051122;28;20145;-57
2023/04/10 10:23:01;;;;;;;9.35;7.50;;;;;;;;;;5054344;28;20068;-57
2023/04/10 10:25:28;;;;;;;9.32;7.22;;;;;;;;;;5065720;28;20567;-55
2023/04/10 10:27:54;;;;;;;9.55;7.78;;;;;;;;;;5076837;28;20439;-58
2023/04/10 10:30:21;;;;;;;9.32;6.97;;;;;;;;;;5088230;28;20525;-57
2023/04/10 10:32:57;;;;;;;8.33;6.57;;;;;;;;;;5084984;28;20527;-58
2023/04/10 10:35:25;;;;;;;10.35;8.07;;;;;;;;;;5058261;28;20695;-57
2023/04/10 10:37:55;;;;;;;10.15;7.20;;;;;;;;;;5085565;28;20080;-56
2023/04/10 10:40:30;;;;;;;12.10;7.43;;;;;;;;;;5062877;28;20526;-56
2023/04/10 10:43:04;;;;;;;9.60;6.70;;;;;;;;;;5077419;28;20533;-57
2023/04/10 10:45:38;;;;;;;8.38;6.95;;;;;;;;;;5071627;28;20065;-57
2023/04/10 10:48:06;;;;;;;8.30;6.63;;;;;;;;;;5058446;28;20056;-59
2023/04/10 10:50:49;;;;;;;8.55;6.43;;;;;;;;;;5081444;28;20052;-58
2023/04/10 10:53:34;;;;;;;8.82;6.47;;;;;;;;;;5061296;28;20571;-58
2023/04/10 10:56:22;;;;;;;7.78;6.10;;;;;;;;;;5067826;28;20092;-59
2023/04/10 10:59:01;;;;;;;8.48;6.35;;;;;;;;;;5047564;28;20107;-58
2023/04/10 11:01:28;;;;;;;7.40;6.15;;;;;;;;;;5046366;28;20585;-59
2023/04/10 11:03:55;;;;;;;10.50;6.15;;;;;;;;;;5047481;28;20462;-57
2023/04/10 11:06:42;;;;;;;9.25;6.22;;;;;;;;;;5050467;28;20080;-58
2023/04/10 11:09:30;;;;;;;9.35;6.97;;;;;;;;;;5078512;28;20053;-59
2023/04/10 11:11:58;;;;;;;7.78;6.22;;;;;;;;;;5062387;28;20059;-57
2023/04/10 11:14:25;;;;;;;6.57;5.63;;;;;;;;;;5067695;28;20057;-58
2023/04/10 11:16:52;;;;;;;8.15;6.60;;;;;;;;;;5085121;28;20048;-57
2023/04/10 11:19:20;;;;;;;7.22;6.13;;;;;;;;;;5083314;28;20102;-58
2023/04/10 11:22:01;;;;;;;7.05;6.22;;;;;;;;;;5069807;28;20064;-58
2023/04/10 11:24:28;;;;;;;7.07;6.00;;;;;;;;;;5084172;28;20058;-59
2023/04/10 11:26:55;;;;;;;6.43;5.70;;;;;;;;;;5068875;28;20258;-58
2023/04/10 11:29:27;;;;;;;6.80;5.88;;;;;;;;;;5069219;28;20668;-58
2023/04/10 11:31:57;;;;;;;7.10;5.80;;;;;;;;;;5066829;28;20147;-58
2023/04/10 11:34:24;;;;;;;13.40;6.40;;;;;;;;;;5066634;28;20127;-57
2023/04/10 11:36:52;;;;;;;7.50;5.88;;;;;;;;;;5067162;28;20053;-57
2023/04/10 11:39:19;;;;;;;8.75;6.80;;;;;;;;;;5066250;28;20052;-58
2023/04/10 11:41:46;;;;;;;8.98;6.78;;;;;;;;;;5066335;28;20083;-58
2023/04/10 11:44:15;;;;;;;6.75;5.57;;;;;;;;;;5064065;28;20064;-57
2023/04/10 11:46:43;;;;;;;8.13;5.90;;;;;;;;;;5066284;28;20091;-56
2023/04/10 11:49:09;;;;;;;8.80;6.32;;;;;;;;;;5083260;28;20056;-57
2023/04/10 11:51:36;;;;;;;6.72;5.88;;;;;;;;;;5086880;28;20052;-58
2023/04/10 11:54:06;;;;;;;8.55;5.93;;;;;;;;;;5076220;28;20053;-56
2023/04/10 11:56:33;;;;;;;7.80;5.70;;;;;;;;;;5082852;28;20110;-59
2023/04/10 11:59:01;;;;;;;6.88;5.55;;;;;;;;;;5066120;28;20518;-59
2023/04/10 12:01:27;;;;;;;6.50;5.40;;;;;;;;;;5066541;28;20762;-58
2023/04/10 12:03:54;;;;;;;6.95;5.22;;;;;;;;;;5079624;28;20061;-58
2023/04/10 12:06:21;;;;;;;6.43;5.60;;;;;;;;;;5053959;28;20064;-57
2023/04/10 12:08:50;;;;;;;6.53;5.50;;;;;;;;;;5046141;28;20085;-56
2023/04/10 12:11:21;;;;;;;7.80;5.60;;;;;;;;;;5046499;28;20053;-59
2023/04/10 12:13:50;;;;;;;9.32;5.20;;;;;;;;;;5061858;28;20491;-58
2023/04/10 12:16:17;;;;;;;7.50;5.15;;;;;;;;;;5065095;28;20152;-57
2023/04/10 12:18:46;;;;;;;6.82;5.13;;;;;;;;;;5065052;28;20056;-59
2023/04/10 12:21:13;;;;;;;6.10;5.10;;;;;;;;;;5074181;28;20541;-58
2023/04/10 12:23:39;;;;;;;9.23;4.55;;;;;;;;;;5065793;28;20083;-58
2023/04/10 12:26:06;;;;;;;5.40;4.57;;;;;;;;;;5076294;28;20844;-58
2023/04/10 12:28:33;;;;;;;14.82;4.70;;;;;;;;;;5067860;28;20053;-59
2023/04/10 12:30:59;;;;;;;6.03;4.88;;;;;;;;;;5079131;28;20056;-56
2023/04/10 12:33:26;;;;;;;5.80;4.40;;;;;;;;;;5066469;28;20142;-57
2023/04/10 12:35:53;;;;;;;4.88;4.07;;;;;;;;;;5078359;28;20132;-59
2023/04/10 12:38:36;;;;;;;4.95;3.92;;;;;;;;;;5062889;28;20057;-57
2023/04/10 12:41:02;;;;;;;4.28;3.55;;;;;;;;;;5045897;28;20092;-58
2023/04/10 12:43:39;;;;;;;4.85;3.97;;;;;;;;;;5046021;28;20095;-54
2023/04/10 12:46:06;;;;;;;6.82;3.80;;;;;;;;;;5065402;28;20434;-57
2023/04/10 12:48:33;;;;;;;7.95;3.50;;;;;;;;;;5065716;28;20049;-58
2023/04/10 12:51:00;;;;;;;4.35;3.55;;;;;;;;;;5070833;28;20493;-58
2023/04/10 12:53:27;;;;;;;5.53;3.67;;;;;;;;;;5072903;28;20144;-52
2023/04/10 12:55:57;;;;;;;4.10;3.70;;;;;;;;;;5052837;28;20511;-55
2023/04/10 12:58:26;;;;;;;4.28;3.78;;;;;;;;;;5077521;28;20143;-57
2023/04/10 13:00:55;;;;;;;4.82;3.63;;;;;;;;;;5079397;28;20049;-58
2023/04/10 13:03:21;;;;;;;3.70;3.22;;;;;;;;;;5065184;28;20052;-56
2023/04/10 13:05:48;;;;;;;5.38;4.00;;;;;;;;;;5066060;28;20057;-56
2023/04/10 13:08:15;;;;;;;3.60;2.85;;;;;;;;;;5077796;28;20048;-59
2023/04/10 13:10:42;;;;;;;4.65;3.22;;;;;;;;;;5077477;28;20056;-56
2023/04/10 13:13:12;;;;;;;4.20;3.63;;;;;;;;;;5064594;28;20053;-58
2023/04/10 13:15:38;;;;;;;5.30;2.92;;;;;;;;;;5066984;28;20053;-57
2023/04/10 13:18:06;;;;;;;4.85;3.58;;;;;;;;;;5067335;28;20057;-58
2023/04/10 13:20:33;;;;;;;7.38;3.58;;;;;;;;;;5080584;28;20083;-58
2023/04/10 13:23:01;;;;;;;4.72;3.10;;;;;;;;;;5088898;28;20070;-57
2023/04/10 13:25:27;;;;;;;3.97;2.85;;;;;;;;;;5086278;28;20145;-58
2023/04/10 13:27:54;;;;;;;5.55;3.13;;;;;;;;;;5061590;28;20062;-57
2023/04/10 13:30:20;;;;;;;4.22;3.05;;;;;;;;;;5082214;28;20079;-56
2023/04/10 13:32:46;;;;;;;3.47;2.92;;;;;;;;;;5087197;28;20053;-55
2023/04/10 13:35:13;;;;;;;5.60;2.92;;;;;;;;;;5079275;28;20081;-57
2023/04/10 13:37:39;;;;;;;3.35;3.00;;;;;;;;;;5088921;28;20068;-57
2023/04/10 13:40:06;;;;;;;3.60;2.88;;;;;;;;;;5072661;28;20064;-57
2023/04/10 13:42:32;;;;;;;3.92;3.40;;;;;;;;;;5088954;28;20051;-58
2023/04/10 13:45:01;;;;;;;4.18;3.28;;;;;;;;;;5088812;28;20056;-58
2023/04/10 13:47:27;;;;;;;3.45;2.97;;;;;;;;;;5075886;28;20143;-58
2023/04/10 13:49:54;;;;;;;4.65;3.72;;;;;;;;;;5073734;28;20149;-57
2023/04/10 13:52:20;;;;;;;5.90;3.58;;;;;;;;;;5084357;28;20055;-58
2023/04/10 13:54:46;;;;;;;4.93;3.22;;;;;;;;;;5074004;28;20049;-58
2023/04/10 13:57:13;;;;;;;6.57;3.72;;;;;;;;;;5070942;28;20147;-56
2023/04/10 13:59:40;;;;;;;5.85;3.75;;;;;;;;;;5070312;28;20379;-55
2023/04/10 14:02:06;;;;;;;7.10;3.70;;;;;;;;;;5068306;28;20075;-56
2023/04/10 14:04:32;;;;;;;5.65;3.75;;;;;;;;;;5070463;28;20064;-56
2023/04/10 14:07:00;;;;;;;4.50;3.80;;;;;;;;;;5057377;28;20079;-56
2023/04/10 14:09:27;;;;;;;4.13;3.65;;;;;;;;;;5047282;28;20104;-56
2023/04/10 14:11:54;;;;;;;6.55;4.13;;;;;;;;;;5059397;28;20501;-58
2023/04/10 14:14:23;;;;;;;4.22;3.75;;;;;;;;;;5059092;28;20512;-58
2023/04/10 14:16:50;;;;;;;6.22;3.83;;;;;;;;;;5063136;28;20103;-58
2023/04/10 14:19:16;;;;;;;4.95;3.78;;;;;;;;;;5073256;28;20053;-57
2023/04/10 14:21:43;;;;;;;4.40;4.00;;;;;;;;;;5054788;28;20057;-57
2023/04/10 14:24:10;;;;;;;7.93;4.15;;;;;;;;;;5067745;28;20107;-55
2023/04/10 14:26:36;;;;;;;5.57;4.30;;;;;;;;;;5073565;28;20057;-57
2023/04/10 14:29:02;;;;;;;5.78;4.10;;;;;;;;;;5068226;28;20049;-55
2023/04/10 14:31:29;;;;;;;4.82;4.20;;;;;;;;;;5066191;28;20719;-58
2023/04/10 14:33:55;;;;;;;6.68;4.47;;;;;;;;;;5065214;28;20123;-58
2023/04/10 14:36:21;;;;;;;5.47;4.82;;;;;;;;;;5065210;28;20137;-57
2023/04/10 14:38:48;;;;;;;5.47;4.05;;;;;;;;;;5073855;28;20470;-57